createdAt,value
2023-02-06T00:00:11.109Z,93.61
2023-02-06T00:02:14.176Z,94.40
2023-02-06T00:04:17.332Z,93.78
2023-02-06T00:06:20.445Z,93.06
2023-02-06T00:08:23.492Z,93.14
2023-02-06T00:10:26.621Z,93.33
2023-02-06T00:12:30.954Z,93.25
2023-02-06T00:14:33.942Z,93.35
2023-02-06T00:16:37.006Z,92.95
2023-02-06T00:18:39.967Z,93.97
2023-02-06T00:20:42.969Z,93.91
2023-02-06T00:22:45.937Z,92.88
2023-02-06T00:24:48.984Z,92.52
2023-02-06T00:26:51.941Z,92.66
2023-02-06T00:28:56.506Z,92.18
2023-02-06T00:31:00.913Z,93.11
2023-02-06T00:33:04.061Z,92.30
2023-02-06T00:35:07.721Z,92.74
2023-02-06T00:37:10.744Z,92.79
2023-02-06T00:39:13.644Z,92.01
2023-02-06T00:41:16.893Z,92.29
2023-02-06T00:43:19.851Z,93.04
2023-02-06T00:45:24.228Z,92.60
2023-02-06T00:47:27.192Z,91.96
2023-02-06T00:49:30.235Z,92.98
2023-02-06T00:51:33.191Z,92.63
2023-02-06T00:53:37.171Z,93.04
2023-02-06T00:55:40.124Z,93.14
2023-02-06T00:57:43.097Z,93.03
2023-02-06T00:59:46.020Z,92.14
2023-02-06T01:01:50.474Z,92.17
2023-02-06T01:03:53.518Z,92.48
2023-02-06T01:05:56.510Z,93.31
2023-02-06T01:07:59.530Z,92.08
2023-02-06T01:10:02.585Z,92.07
2023-02-06T01:12:06.325Z,92.41
2023-02-06T01:14:09.308Z,92.52
2023-02-06T01:16:14.539Z,92.00
2023-02-06T01:18:19.065Z,92.50
2023-02-06T01:20:23.820Z,91.70
2023-02-06T01:22:26.986Z,92.01
2023-02-06T01:24:30.172Z,91.78
2023-02-06T01:26:33.180Z,92.34
2023-02-06T01:28:36.911Z,92.44
2023-02-06T01:30:40.244Z,92.93
2023-02-06T01:32:43.466Z,92.56
2023-02-06T01:34:47.841Z,93.01
2023-02-06T01:36:50.763Z,93.12
2023-02-06T01:38:53.985Z,93.14
2023-02-06T01:40:57.651Z,93.42
2023-02-06T01:43:02.053Z,93.03
2023-02-06T01:45:37.236Z,93.38
2023-02-06T01:47:40.509Z,93.28
2023-02-06T01:49:45.625Z,93.48
2023-02-06T01:51:51.083Z,93.77
2023-02-06T01:53:56.329Z,93.31
2023-02-06T01:56:01.550Z,93.42
2023-02-06T01:58:05.849Z,93.37
2023-02-06T02:00:11.388Z,94.26
2023-02-06T02:02:17.486Z,93.87
2023-02-06T02:04:22.854Z,93.37
2023-02-06T02:06:27.504Z,93.99
2023-02-06T02:08:36.637Z,93.73
2023-02-06T02:10:39.926Z,93.66
2023-02-06T02:12:42.943Z,94.00
2023-02-06T02:14:47.354Z,93.61
2023-02-06T02:16:57.999Z,93.83
2023-02-06T02:19:17.536Z,92.45
2023-02-06T02:22:08.362Z,91.63
2023-02-06T02:24:15.081Z,92.67
2023-02-06T02:26:36.522Z,92.27
2023-02-06T02:29:13.897Z,92.80
2023-02-06T02:31:38.968Z,93.21
2023-02-06T02:34:08.033Z,92.32
2023-02-06T02:36:15.305Z,93.33
2023-02-06T02:38:31.302Z,93.47
2023-02-06T02:40:41.221Z,93.19
2023-02-06T02:42:49.064Z,93.10
2023-02-06T02:44:55.852Z,93.00
2023-02-06T02:47:03.149Z,92.79
2023-02-06T02:49:09.425Z,93.18
2023-02-06T02:51:14.535Z,92.60
2023-02-06T02:53:18.255Z,93.97
2023-02-06T02:55:23.525Z,93.45
2023-02-06T02:57:33.164Z,93.18
2023-02-06T02:59:38.215Z,93.05
2023-02-06T03:01:44.545Z,93.13
2023-02-06T03:03:49.602Z,93.76
2023-02-06T03:06:02.275Z,92.84
2023-02-06T03:08:14.274Z,93.55
2023-02-06T03:10:24.096Z,92.87
2023-02-06T03:12:35.542Z,92.96
2023-02-06T03:14:42.535Z,93.35
2023-02-06T03:16:49.013Z,92.86
2023-02-06T03:18:56.892Z,92.88
2023-02-06T03:21:01.038Z,94.13
2023-02-06T03:23:05.513Z,93.42
2023-02-06T03:25:13.477Z,93.29
2023-02-06T03:27:17.096Z,91.52
2023-02-06T03:29:20.288Z,91.06
2023-02-06T03:31:27.774Z,90.21
2023-02-06T03:33:33.728Z,89.82
2023-02-06T03:35:38.187Z,90.86
2023-02-06T03:37:41.383Z,90.71
2023-02-06T03:39:45.103Z,91.28
2023-02-06T03:41:50.225Z,92.06
2023-02-06T03:43:53.683Z,91.90
2023-02-06T03:46:00.167Z,92.15
2023-02-06T03:48:05.893Z,92.09
2023-02-06T03:50:10.658Z,91.79
2023-02-06T03:52:15.066Z,92.53
2023-02-06T03:54:19.886Z,92.29
2023-02-06T03:56:29.415Z,93.03
2023-02-06T03:58:34.247Z,92.80
2023-02-06T04:00:38.848Z,93.10
2023-02-06T04:02:42.166Z,93.46
2023-02-06T04:04:46.532Z,93.99
2023-02-06T04:06:49.464Z,93.85
2023-02-06T04:08:52.488Z,93.09
2023-02-06T04:10:55.457Z,93.28
2023-02-06T04:12:58.603Z,93.41
2023-02-06T04:15:02.951Z,93.33
2023-02-06T04:17:07.180Z,92.90
2023-02-06T04:19:10.169Z,93.47
2023-02-06T04:21:13.098Z,93.43
2023-02-06T04:23:16.159Z,92.18
2023-02-06T04:25:21.265Z,93.11
2023-02-06T04:27:24.490Z,93.12
2023-02-06T04:29:27.716Z,93.10
2023-02-06T04:31:32.481Z,92.46
2023-02-06T04:33:35.654Z,91.83
2023-02-06T04:35:38.683Z,91.19
2023-02-06T04:37:41.812Z,92.58
2023-02-06T04:39:44.796Z,92.78
2023-02-06T04:41:47.924Z,91.10
2023-02-06T04:43:50.905Z,92.32
2023-02-06T04:45:54.054Z,91.56
2023-02-06T04:47:59.601Z,92.22
2023-02-06T04:50:02.688Z,91.76
2023-02-06T04:52:06.153Z,92.35
2023-02-06T04:54:09.348Z,90.91
2023-02-06T04:56:13.744Z,92.22
2023-02-06T04:58:16.770Z,92.44
2023-02-06T05:00:19.895Z,92.46
2023-02-06T05:02:22.957Z,91.58
2023-02-06T05:04:28.505Z,92.40
2023-02-06T05:06:31.763Z,91.60
2023-02-06T05:08:34.746Z,90.94
2023-02-06T05:10:37.887Z,90.95
2023-02-06T05:12:40.804Z,90.44
2023-02-06T05:14:43.700Z,91.05
2023-02-06T05:16:46.584Z,91.08
2023-02-06T05:18:54.074Z,90.27
2023-02-06T05:20:58.397Z,90.13
2023-02-06T05:23:01.314Z,91.09
2023-02-06T05:25:04.418Z,91.12
2023-02-06T05:27:07.393Z,90.86
2023-02-06T05:29:10.402Z,90.36
2023-02-06T05:31:18.313Z,90.82
2023-02-06T05:33:21.499Z,90.21
2023-02-06T05:35:25.144Z,89.75
2023-02-06T05:37:29.584Z,90.75
2023-02-06T05:39:32.598Z,89.94
2023-02-06T05:41:35.778Z,90.48
2023-02-06T05:43:39.404Z,90.35
2023-02-06T05:45:42.378Z,90.85
2023-02-06T05:47:45.350Z,90.70
2023-02-06T05:49:48.768Z,91.33
2023-02-06T05:51:51.814Z,91.81
2023-02-06T05:53:56.249Z,90.95
2023-02-06T05:55:59.230Z,90.81
2023-02-06T05:58:02.185Z,90.93
2023-02-06T06:00:06.665Z,91.29
2023-02-06T06:02:14.810Z,89.79
2023-02-06T06:04:17.968Z,90.72
2023-02-06T06:06:21.000Z,90.57
2023-02-06T06:08:24.015Z,90.92
2023-02-06T06:10:28.619Z,90.11
2023-02-06T06:12:31.671Z,88.89
2023-02-06T06:14:34.751Z,89.16
2023-02-06T06:16:37.757Z,88.71
2023-02-06T06:18:40.691Z,88.42
2023-02-06T06:20:43.732Z,88.43
2023-02-06T06:22:46.723Z,88.90
2023-02-06T06:24:49.697Z,87.66
2023-02-06T06:26:54.239Z,86.66
2023-02-06T06:28:57.514Z,86.15
2023-02-06T06:31:04.497Z,86.67
2023-02-06T06:33:07.584Z,85.85
2023-02-06T06:35:10.535Z,85.68
2023-02-06T06:37:13.524Z,85.98
2023-02-06T06:39:16.472Z,85.86
2023-02-06T06:41:19.521Z,86.22
2023-02-06T06:43:23.937Z,86.10
2023-02-06T06:45:26.950Z,86.64
2023-02-06T06:47:29.991Z,86.98
2023-02-06T06:49:33.285Z,86.92
2023-02-06T06:51:36.268Z,86.41
2023-02-06T06:53:40.123Z,87.54
2023-02-06T06:55:43.462Z,86.50
2023-02-06T06:57:46.522Z,87.27
2023-02-06T06:59:50.958Z,86.66
2023-02-06T07:01:53.957Z,87.03
2023-02-06T07:03:57.013Z,85.60
2023-02-06T07:06:00.135Z,85.76
2023-02-06T07:08:03.208Z,85.94
2023-02-06T07:10:07.583Z,86.31
2023-02-06T07:12:10.732Z,88.61
2023-02-06T07:14:13.889Z,87.63
2023-02-06T07:16:18.515Z,88.32
2023-02-06T07:18:22.230Z,89.10
2023-02-06T07:20:25.270Z,87.92
2023-02-06T07:22:28.312Z,87.90
2023-02-06T07:24:31.465Z,87.50
2023-02-06T07:26:34.654Z,87.65
2023-02-06T07:28:37.735Z,86.18
2023-02-06T07:30:40.785Z,85.09
2023-02-06T07:32:45.148Z,84.78
2023-02-06T07:34:48.191Z,84.38
2023-02-06T07:36:51.402Z,85.83
2023-02-06T07:38:54.451Z,85.07
2023-02-06T07:41:02.405Z,84.96
2023-02-06T07:43:07.254Z,85.00
2023-02-06T07:45:11.955Z,84.90
2023-02-06T07:47:14.988Z,85.00
2023-02-06T07:49:19.452Z,85.64
2023-02-06T07:51:22.951Z,85.31
2023-02-06T07:53:26.363Z,85.05
2023-02-06T07:55:30.053Z,85.55
2023-02-06T07:57:33.114Z,85.01
2023-02-06T07:59:36.123Z,85.57
2023-02-06T08:01:39.190Z,85.87
2023-02-06T08:03:42.201Z,85.44
2023-02-06T08:05:46.841Z,84.46
2023-02-06T08:07:51.925Z,85.42
2023-02-06T08:09:55.029Z,84.11
2023-02-06T08:11:58.347Z,84.16
2023-02-06T08:14:01.522Z,83.24
2023-02-06T08:16:06.496Z,83.44
2023-02-06T08:18:10.366Z,83.98
2023-02-06T08:20:13.916Z,83.80
2023-02-06T08:22:18.398Z,84.00
2023-02-06T08:24:21.423Z,84.15
2023-02-06T08:26:25.044Z,84.11
2023-02-06T08:28:28.159Z,84.43
2023-02-06T08:30:32.439Z,84.16
2023-02-06T08:32:36.466Z,84.54
2023-02-06T08:34:40.462Z,84.35
2023-02-06T08:36:44.267Z,83.15
2023-02-06T08:38:49.343Z,83.53
2023-02-06T08:40:52.469Z,83.18
2023-02-06T08:42:55.878Z,83.51
2023-02-06T08:44:58.907Z,83.25
2023-02-06T08:47:10.068Z,83.20
2023-02-06T08:49:15.133Z,83.09
2023-02-06T08:51:18.261Z,82.35
2023-02-06T08:53:21.257Z,82.21
2023-02-06T08:55:25.866Z,81.81
2023-02-06T08:57:29.001Z,82.02
2023-02-06T08:59:32.239Z,83.23
2023-02-06T09:01:36.700Z,81.99
2023-02-06T09:03:39.690Z,80.44
2023-02-06T09:05:42.964Z,81.49
2023-02-06T09:07:46.195Z,81.44
2023-02-06T09:09:49.407Z,80.80
2023-02-06T09:11:55.436Z,81.55
2023-02-06T09:13:59.689Z,81.60
2023-02-06T09:16:03.202Z,81.76
2023-02-06T09:18:06.677Z,81.89
2023-02-06T09:20:10.672Z,80.35
2023-02-06T09:22:14.105Z,79.81
2023-02-06T09:24:17.148Z,80.76
2023-02-06T09:26:23.904Z,80.46
2023-02-06T09:28:28.779Z,80.69
2023-02-06T09:30:32.227Z,80.91
2023-02-06T09:32:35.307Z,81.15
2023-02-06T09:34:38.408Z,81.64
2023-02-06T09:36:41.756Z,81.01
2023-02-06T09:38:46.922Z,80.60
2023-02-06T09:40:50.051Z,80.62
2023-02-06T09:42:54.044Z,81.46
2023-02-06T09:45:04.577Z,81.39
2023-02-06T09:47:16.273Z,82.23
2023-02-06T09:49:22.276Z,81.67
2023-02-06T09:51:40.448Z,81.52
2023-02-06T09:53:49.004Z,82.32
2023-02-06T09:55:56.895Z,81.75
2023-02-06T09:58:05.964Z,82.19
2023-02-06T10:00:17.188Z,81.82
2023-02-06T10:02:30.841Z,81.83
2023-02-06T10:04:42.036Z,81.05
2023-02-06T10:06:51.389Z,81.70
2023-02-06T10:09:01.007Z,81.70
2023-02-06T10:11:10.632Z,80.58
2023-02-06T10:13:17.292Z,80.59
2023-02-06T10:15:28.985Z,80.97
2023-02-06T10:17:35.023Z,80.48
2023-02-06T10:19:43.645Z,80.92
2023-02-06T10:21:51.663Z,80.82
2023-02-06T10:23:59.791Z,81.26
2023-02-06T10:26:08.051Z,81.43
2023-02-06T10:28:21.985Z,80.88
2023-02-06T10:30:37.084Z,79.60
2023-02-06T10:32:46.554Z,80.01
2023-02-06T10:35:01.129Z,80.94
2023-02-06T10:37:17.626Z,81.22
2023-02-06T10:39:42.431Z,81.08
2023-02-06T10:41:51.798Z,80.01
2023-02-06T10:43:57.178Z,80.02
2023-02-06T10:46:13.998Z,80.37
2023-02-06T10:48:23.996Z,80.44
2023-02-06T10:50:28.952Z,81.44
2023-02-06T10:52:34.721Z,80.58
2023-02-06T10:54:40.099Z,80.11
2023-02-06T10:56:45.109Z,80.39
2023-02-06T10:58:52.433Z,80.33
2023-02-06T11:00:56.437Z,79.47
2023-02-06T11:03:07.685Z,79.52
2023-02-06T11:05:14.223Z,78.64
2023-02-06T11:07:20.742Z,78.15
2023-02-06T11:09:24.358Z,76.52
2023-02-06T11:11:30.616Z,76.59
2023-02-06T11:13:36.492Z,76.76
2023-02-06T11:15:44.555Z,76.65
2023-02-06T11:17:48.110Z,77.66
2023-02-06T11:19:53.454Z,77.52
2023-02-06T11:21:58.141Z,77.83
2023-02-06T11:24:09.921Z,77.32
2023-02-06T11:26:15.098Z,76.58
2023-02-06T11:28:21.196Z,75.11
2023-02-06T11:30:32.096Z,75.05
2023-02-06T11:32:37.745Z,75.33
2023-02-06T11:34:54.708Z,75.41
2023-02-06T11:36:59.747Z,76.38
2023-02-06T11:39:05.427Z,74.68
2023-02-06T11:41:18.862Z,75.57
2023-02-06T11:43:23.357Z,75.38
2023-02-06T11:45:29.811Z,74.20
2023-02-06T11:47:37.191Z,74.07
2023-02-06T11:49:40.711Z,73.96
2023-02-06T11:51:51.387Z,74.55
2023-02-06T11:53:58.854Z,73.94
2023-02-06T11:56:11.941Z,74.70
2023-02-06T11:58:26.167Z,75.67
2023-02-06T12:00:30.393Z,75.24
2023-02-06T12:02:35.229Z,74.29
2023-02-06T12:04:41.010Z,74.94
2023-02-06T12:06:44.411Z,75.50
2023-02-06T12:08:50.976Z,72.44
2023-02-06T12:10:57.167Z,73.00
2023-02-06T12:13:05.882Z,73.63
2023-02-06T12:15:36.202Z,73.49
2023-02-06T12:17:38.665Z,73.82
2023-02-06T12:19:46.498Z,73.59
2023-02-06T12:21:52.243Z,72.21
2023-02-06T12:23:59.692Z,72.49
2023-02-06T12:26:06.525Z,71.47
2023-02-06T12:28:13.975Z,72.64
2023-02-06T12:30:28.365Z,71.42
2023-02-06T12:32:34.232Z,72.55
2023-02-06T12:34:49.640Z,72.80
2023-02-06T12:37:00.475Z,73.47
2023-02-06T12:39:08.210Z,73.97
2023-02-06T12:41:24.145Z,73.64
2023-02-06T12:43:28.662Z,73.64
2023-02-06T12:45:40.204Z,73.07
2023-02-06T12:47:47.209Z,73.93
2023-02-06T12:50:01.998Z,73.59
2023-02-06T12:52:10.839Z,72.99
2023-02-06T12:54:18.254Z,73.56
2023-02-06T12:56:29.456Z,73.12
2023-02-06T12:58:39.950Z,72.91
2023-02-06T13:00:53.572Z,73.22
2023-02-06T13:03:07.708Z,72.60
2023-02-06T13:05:22.892Z,72.99
2023-02-06T13:07:28.327Z,73.17
2023-02-06T13:09:36.325Z,71.64
2023-02-06T13:11:40.911Z,71.91
2023-02-06T13:13:44.022Z,72.26
2023-02-06T13:15:54.838Z,72.12
2023-02-06T13:17:58.043Z,73.06
2023-02-06T13:20:03.308Z,73.20
2023-02-06T13:22:40.308Z,72.04
2023-02-06T13:24:46.039Z,72.19
2023-02-06T13:27:19.213Z,72.83
2023-02-06T13:29:26.660Z,73.12
2023-02-06T13:31:31.912Z,73.09
2023-02-06T13:33:41.112Z,74.01
2023-02-06T13:35:57.368Z,73.79
2023-02-06T13:38:28.460Z,73.51
2023-02-06T13:40:35.333Z,73.24
2023-02-06T13:42:42.687Z,73.57
2023-02-06T13:44:46.072Z,72.92
2023-02-06T13:47:29.769Z,71.93
2023-02-06T13:49:44.900Z,71.88
2023-02-06T13:51:50.340Z,72.19
2023-02-06T13:54:13.505Z,73.99
2023-02-06T13:56:39.241Z,73.48
2023-02-06T13:58:47.612Z,72.69
2023-02-06T14:00:52.617Z,72.75
2023-02-06T14:02:57.412Z,72.03
2023-02-06T14:05:01.404Z,72.76
2023-02-06T14:07:17.782Z,72.27
2023-02-06T14:09:48.895Z,72.43
2023-02-06T14:12:18.426Z,73.41
2023-02-06T14:14:32.868Z,72.62
2023-02-06T14:16:44.291Z,72.56
2023-02-06T14:18:51.284Z,73.50
2023-02-06T14:21:02.197Z,73.59
2023-02-06T14:23:12.656Z,74.17
2023-02-06T14:25:32.444Z,74.10
2023-02-06T14:27:46.260Z,74.26
2023-02-06T14:29:55.606Z,74.29
2023-02-06T14:32:26.113Z,74.65
2023-02-06T14:34:37.950Z,74.04
2023-02-06T14:36:51.093Z,74.48
2023-02-06T14:39:20.313Z,75.29
2023-02-06T14:41:23.949Z,74.98
2023-02-06T14:43:31.558Z,75.73
2023-02-06T14:45:42.151Z,75.55
2023-02-06T14:47:45.810Z,75.60
2023-02-06T14:49:49.373Z,75.68
2023-02-06T14:51:53.042Z,75.47
2023-02-06T14:53:58.233Z,75.57
2023-02-06T14:56:10.590Z,74.85
2023-02-06T14:58:20.557Z,75.96
2023-02-06T15:00:26.161Z,75.83
2023-02-06T15:02:33.567Z,74.74
2023-02-06T15:04:46.168Z,74.74
2023-02-06T15:06:53.019Z,75.91
2023-02-06T15:08:56.388Z,75.95
2023-02-06T15:11:01.018Z,75.44
2023-02-06T15:13:04.405Z,74.96
2023-02-06T15:15:17.455Z,74.67
2023-02-06T15:17:23.354Z,74.84
2023-02-06T15:19:28.333Z,73.52
2023-02-06T15:21:31.408Z,73.81
2023-02-06T15:23:44.520Z,72.15
2023-02-06T15:26:00.402Z,72.89
2023-02-06T15:28:07.134Z,72.82
2023-02-06T15:30:20.884Z,72.83
2023-02-06T15:32:30.802Z,73.39
2023-02-06T15:34:34.108Z,72.67
2023-02-06T15:36:39.508Z,72.81
2023-02-06T15:38:43.393Z,72.82
2023-02-06T15:40:48.058Z,71.53
2023-02-06T15:42:51.697Z,72.49
2023-02-06T15:44:54.837Z,72.15
2023-02-06T15:46:58.694Z,72.54
2023-02-06T15:49:03.607Z,71.72
2023-02-06T15:51:20.289Z,72.28
2023-02-06T15:53:31.249Z,72.20
2023-02-06T15:55:36.081Z,70.19
2023-02-06T15:57:41.295Z,70.09
2023-02-06T15:59:44.573Z,70.38
2023-02-06T16:01:48.523Z,70.86
2023-02-06T16:03:54.865Z,72.38
2023-02-06T16:05:59.923Z,72.94
2023-02-06T16:08:03.968Z,72.20
2023-02-06T16:10:22.111Z,72.44
2023-02-06T16:12:25.347Z,72.79
2023-02-06T16:14:35.451Z,71.80
2023-02-06T16:16:38.773Z,71.86
2023-02-06T16:18:41.960Z,71.43
2023-02-06T16:20:46.774Z,71.64
2023-02-06T16:22:51.391Z,70.58
2023-02-06T16:24:56.429Z,71.79
2023-02-06T16:27:00.185Z,71.78
2023-02-06T16:29:06.256Z,71.50
2023-02-06T16:31:12.498Z,71.84
2023-02-06T16:33:23.424Z,72.45
2023-02-06T16:35:27.218Z,72.48
2023-02-06T16:37:31.817Z,71.34
2023-02-06T16:39:36.232Z,71.74
2023-02-06T16:41:40.626Z,70.52
2023-02-06T16:43:43.709Z,70.70
2023-02-06T16:45:47.924Z,70.93
2023-02-06T16:47:51.366Z,71.80
2023-02-06T16:49:54.344Z,72.51
2023-02-06T16:51:57.569Z,74.39
2023-02-06T16:54:00.607Z,72.41
2023-02-06T16:56:05.589Z,72.11
2023-02-06T16:58:12.335Z,72.48
2023-02-06T17:00:20.912Z,73.02
2023-02-06T17:02:24.096Z,72.52
2023-02-06T17:04:27.361Z,73.59
2023-02-06T17:06:31.373Z,73.04
2023-02-06T17:08:40.424Z,72.83
2023-02-06T17:10:43.578Z,73.60
2023-02-06T17:12:48.633Z,73.26
2023-02-06T17:14:51.966Z,73.44
2023-02-06T17:16:55.961Z,74.05
2023-02-06T17:18:59.107Z,74.36
2023-02-06T17:21:02.231Z,74.20
2023-02-06T17:23:05.986Z,74.61
2023-02-06T17:25:09.592Z,75.11
2023-02-06T17:27:15.419Z,74.33
2023-02-06T17:29:20.360Z,75.66
2023-02-06T17:31:23.929Z,75.32
2023-02-06T17:33:27.261Z,75.67
2023-02-06T17:35:30.425Z,75.32
2023-02-06T17:37:33.784Z,74.94
2023-02-06T17:39:36.987Z,75.64
2023-02-06T17:41:40.261Z,76.24
2023-02-06T17:43:43.312Z,74.88
2023-02-06T17:45:48.176Z,75.71
2023-02-06T17:47:51.508Z,76.33
2023-02-06T17:49:54.915Z,76.51
2023-02-06T17:51:57.999Z,76.71
2023-02-06T17:54:01.056Z,77.80
2023-02-06T17:56:06.246Z,77.21
2023-02-06T17:58:09.781Z,77.64
2023-02-06T18:00:16.588Z,77.72
2023-02-06T18:02:21.385Z,76.93
2023-02-06T18:04:24.741Z,78.36
2023-02-06T18:06:27.945Z,78.10
2023-02-06T18:08:31.091Z,77.64
2023-02-06T18:10:34.284Z,78.12
2023-02-06T18:12:37.627Z,78.90
2023-02-06T18:14:40.954Z,78.81
2023-02-06T18:16:45.541Z,79.34
2023-02-06T18:18:50.676Z,79.05
2023-02-06T18:20:53.880Z,79.15
2023-02-06T18:22:57.062Z,80.10
2023-02-06T18:25:03.062Z,79.72
2023-02-06T18:27:06.893Z,80.48
2023-02-06T18:29:10.152Z,80.20
2023-02-06T18:31:22.958Z,81.72
2023-02-06T18:33:26.024Z,80.14
2023-02-06T18:35:30.632Z,81.51
2023-02-06T18:37:35.199Z,82.20
2023-02-06T18:39:38.716Z,84.01
2023-02-06T18:41:59.438Z,85.46
2023-02-06T18:44:04.870Z,85.98
2023-02-06T18:46:08.235Z,86.44
2023-02-06T18:48:13.133Z,87.14
2023-02-06T18:50:16.615Z,87.76
2023-02-06T18:52:21.218Z,88.41
2023-02-06T18:54:24.255Z,88.37
2023-02-06T18:56:27.455Z,88.70
2023-02-06T18:58:30.545Z,89.33
2023-02-06T19:00:35.755Z,89.44
2023-02-06T19:02:39.187Z,90.20
2023-02-06T19:04:42.310Z,90.79
2023-02-06T19:06:46.044Z,91.45
2023-02-06T19:08:50.537Z,91.49
2023-02-06T19:10:53.939Z,92.51
2023-02-06T19:12:57.172Z,92.93
2023-02-06T19:15:00.629Z,93.16
2023-02-06T19:17:03.806Z,93.33
2023-02-06T19:19:07.733Z,94.21
2023-02-06T19:21:12.869Z,96.42
2023-02-06T19:23:15.970Z,96.92
2023-02-06T19:25:21.116Z,97.00
2023-02-06T19:27:26.133Z,96.72
2023-02-06T19:29:35.516Z,96.45
2023-02-06T19:31:40.630Z,95.60
2023-02-06T19:33:43.960Z,95.19
2023-02-06T19:35:47.403Z,95.25
2023-02-06T19:37:51.848Z,94.73
2023-02-06T19:39:55.123Z,95.00
2023-02-06T19:42:00.121Z,95.24
2023-02-06T19:44:05.129Z,94.18
2023-02-06T19:46:11.890Z,93.53
2023-02-06T19:48:15.134Z,93.63
2023-02-06T19:50:18.349Z,94.06
2023-02-06T19:52:21.718Z,93.76
2023-02-06T19:54:24.814Z,92.77
2023-02-06T19:56:30.932Z,92.43
2023-02-06T19:58:35.339Z,92.43
2023-02-06T20:00:38.841Z,91.80
2023-02-06T20:02:42.030Z,91.22
2023-02-06T20:04:46.238Z,91.32
2023-02-06T20:06:51.240Z,91.09
2023-02-06T20:08:54.743Z,90.91
2023-02-06T20:10:58.672Z,91.52
2023-02-06T20:13:02.264Z,91.30
2023-02-06T20:15:07.771Z,91.84
2023-02-06T20:17:11.683Z,91.45
2023-02-06T20:19:18.451Z,91.29
2023-02-06T20:21:24.199Z,91.64
2023-02-06T20:23:27.824Z,90.87
2023-02-06T20:25:31.281Z,91.29
2023-02-06T20:27:34.314Z,91.12
2023-02-06T20:29:39.351Z,90.83
2023-02-06T20:31:43.920Z,90.81
2023-02-06T20:33:47.598Z,90.76
2023-02-06T20:35:50.571Z,90.87
2023-02-06T20:37:53.578Z,90.85
2023-02-06T20:39:56.852Z,91.00
2023-02-06T20:42:00.123Z,90.80
2023-02-06T20:44:03.542Z,91.27
2023-02-06T20:46:07.567Z,91.07
2023-02-06T20:48:12.236Z,90.72
2023-02-06T20:50:16.637Z,90.89
2023-02-06T20:52:19.859Z,90.76
2023-02-06T20:54:24.106Z,90.42
2023-02-06T20:56:27.218Z,90.88
2023-02-06T20:58:30.699Z,91.06
2023-02-06T21:00:33.801Z,90.94
2023-02-06T21:02:38.149Z,90.86
2023-02-06T21:04:42.819Z,90.92
2023-02-06T21:06:48.095Z,90.91
2023-02-06T21:08:56.572Z,90.29
2023-02-06T21:10:59.679Z,90.71
2023-02-06T21:13:02.737Z,91.06
2023-02-06T21:15:06.482Z,90.54
2023-02-06T21:17:10.216Z,90.31
2023-02-06T21:19:15.108Z,90.43
2023-02-06T21:21:20.267Z,90.86
2023-02-06T21:23:23.654Z,90.72
2023-02-06T21:25:26.922Z,90.74
2023-02-06T21:27:30.662Z,90.99
2023-02-06T21:29:33.881Z,90.54
2023-02-06T21:31:38.848Z,90.44
2023-02-06T21:33:42.163Z,90.23
2023-02-06T21:35:50.472Z,90.72
2023-02-06T21:37:55.192Z,90.50
2023-02-06T21:39:58.536Z,90.20
2023-02-06T21:42:01.759Z,90.16
2023-02-06T21:44:05.389Z,90.54
2023-02-06T21:46:08.792Z,90.49
2023-02-06T21:48:12.086Z,90.33
2023-02-06T21:50:15.650Z,89.89
2023-02-06T21:52:18.815Z,90.19
2023-02-06T21:54:24.792Z,89.88
2023-02-06T21:56:29.188Z,89.54
2023-02-06T21:58:32.316Z,89.85
2023-02-06T22:00:35.651Z,89.51
2023-02-06T22:02:38.828Z,89.73
2023-02-06T22:04:42.054Z,89.49
2023-02-06T22:06:45.145Z,89.75
2023-02-06T22:08:52.632Z,89.33
2023-02-06T22:10:57.138Z,88.27
2023-02-06T22:13:00.187Z,89.34
2023-02-06T22:15:03.560Z,88.98
2023-02-06T22:17:07.916Z,89.11
2023-02-06T22:19:11.582Z,88.58
2023-02-06T22:21:16.294Z,88.11
2023-02-06T22:23:19.442Z,88.75
2023-02-06T22:25:22.644Z,87.98
2023-02-06T22:27:27.073Z,88.39
2023-02-06T22:29:31.060Z,88.63
2023-02-06T22:31:35.224Z,88.54
2023-02-06T22:33:38.879Z,88.14
2023-02-06T22:35:41.995Z,88.23
2023-02-06T22:37:45.034Z,87.72
2023-02-06T22:39:48.347Z,87.72
2023-02-06T22:41:51.550Z,87.43
2023-02-06T22:43:56.030Z,87.25
2023-02-06T22:45:59.193Z,87.12
2023-02-06T22:48:02.313Z,86.79
2023-02-06T22:50:05.618Z,86.44
2023-02-06T22:52:28.649Z,86.23
2023-02-06T22:54:31.899Z,85.35
2023-02-06T22:56:41.204Z,84.03
2023-02-06T22:58:44.466Z,84.25
2023-02-06T23:00:48.907Z,83.48
2023-02-06T23:02:52.054Z,83.67
2023-02-06T23:04:55.035Z,82.67
2023-02-06T23:06:58.260Z,81.33
2023-02-06T23:09:02.673Z,80.09
2023-02-06T23:11:06.128Z,79.47
2023-02-06T23:13:09.140Z,78.87
2023-02-06T23:15:12.222Z,79.34
2023-02-06T23:17:16.593Z,79.35
2023-02-06T23:19:20.137Z,78.95
2023-02-06T23:21:24.277Z,79.56
2023-02-06T23:23:27.456Z,79.30
2023-02-06T23:25:30.904Z,79.65
2023-02-06T23:27:34.078Z,79.50
2023-02-06T23:29:37.774Z,79.80
2023-02-06T23:31:40.851Z,80.10
2023-02-06T23:33:45.559Z,80.11
2023-02-06T23:35:48.767Z,80.25
2023-02-06T23:37:51.870Z,80.65
2023-02-06T23:39:54.909Z,81.02
2023-02-06T23:41:58.077Z,81.23
2023-02-06T23:44:02.516Z,81.52
2023-02-06T23:46:07.287Z,81.88
2023-02-06T23:48:10.444Z,81.92
2023-02-06T23:50:14.972Z,81.42
2023-02-06T23:52:18.063Z,82.04
2023-02-06T23:54:21.096Z,81.27
2023-02-06T23:56:26.725Z,81.83
2023-02-06T23:58:29.884Z,81.84
